createdAt,value
2017-10-17T00:00:21.155Z,9.60
2017-10-17T00:03:23.849Z,8.33
2017-10-17T00:06:25.497Z,8.30
2017-10-17T00:09:27.146Z,8.03
2017-10-17T00:12:28.834Z,7.93
2017-10-17T00:15:30.586Z,7.80
2017-10-17T00:18:32.229Z,8.10
2017-10-17T00:21:33.809Z,8.57
2017-10-17T00:24:35.466Z,7.27
2017-10-17T00:27:38.062Z,9.20
2017-10-17T00:30:40.619Z,8.57
2017-10-17T00:33:42.306Z,8.43
2017-10-17T00:36:44.099Z,8.50
2017-10-17T00:39:46.733Z,8.77
2017-10-17T00:42:48.380Z,9.07
2017-10-17T00:45:49.929Z,9.63
2017-10-17T00:48:51.588Z,9.33
2017-10-17T00:51:53.881Z,7.43
2017-10-17T00:54:55.489Z,7.83
2017-10-17T00:57:58.445Z,9.17
2017-10-17T01:01:00.835Z,7.83
2017-10-17T01:04:03.230Z,8.80
2017-10-17T01:07:04.910Z,8.00
2017-10-17T01:10:06.575Z,7.90
2017-10-17T01:13:08.249Z,8.20
2017-10-17T01:16:09.985Z,8.57
2017-10-17T01:19:11.618Z,8.57
2017-10-17T01:22:14.023Z,8.93
2017-10-17T01:25:15.692Z,9.10
2017-10-17T01:28:17.328Z,8.53
2017-10-17T01:31:19.030Z,7.57
2017-10-17T01:34:25.712Z,8.03
2017-10-17T01:37:28.208Z,10.07
2017-10-17T01:40:33.324Z,8.60
2017-10-17T01:43:42.932Z,8.60
2017-10-17T01:46:46.372Z,8.60
2017-10-17T01:49:50.996Z,8.90
2017-10-17T01:52:59.989Z,8.17
2017-10-17T01:56:01.543Z,8.53
2017-10-17T01:59:03.142Z,8.30
2017-10-17T02:02:04.730Z,7.97
2017-10-17T02:05:06.381Z,9.00
2017-10-17T02:08:13.820Z,9.60
2017-10-17T02:11:18.300Z,9.57
2017-10-17T02:14:20.042Z,8.70
2017-10-17T02:17:25.533Z,9.33
2017-10-17T02:20:27.261Z,8.80
2017-10-17T02:23:28.990Z,10.23
2017-10-17T02:26:30.718Z,8.97
2017-10-17T02:29:51.141Z,8.03
2017-10-17T02:32:52.805Z,9.60
2017-10-17T02:35:55.161Z,9.47
2017-10-17T02:38:57.401Z,9.47
2017-10-17T02:41:59.006Z,9.23
2017-10-17T02:45:01.428Z,10.23
2017-10-17T02:48:07.749Z,9.90
2017-10-17T02:51:11.123Z,9.30
2017-10-17T02:54:13.648Z,9.47
2017-10-17T02:57:15.355Z,9.80
2017-10-17T03:00:17.772Z,9.20
2017-10-17T03:03:24.140Z,9.80
2017-10-17T03:06:25.924Z,10.23
2017-10-17T03:09:27.546Z,9.60
2017-10-17T03:12:29.106Z,9.20
2017-10-17T03:15:34.443Z,10.70
2017-10-17T03:18:36.799Z,10.80
2017-10-17T03:21:43.117Z,10.10
2017-10-17T03:25:10.527Z,9.57
2017-10-17T03:28:14.961Z,10.47
2017-10-17T03:31:18.177Z,9.43
2017-10-17T03:34:20.809Z,8.97
2017-10-17T03:37:34.171Z,9.17
2017-10-17T03:40:47.595Z,9.83
2017-10-17T03:43:53.471Z,9.40
2017-10-17T03:46:55.845Z,9.60
2017-10-17T03:50:01.987Z,10.50
2017-10-17T03:53:25.495Z,9.90
2017-10-17T03:56:27.166Z,9.63
2017-10-17T03:59:35.568Z,9.67
2017-10-17T04:02:37.161Z,8.90
2017-10-17T04:05:50.449Z,10.30
2017-10-17T04:09:07.870Z,10.20
2017-10-17T04:12:10.313Z,10.30
2017-10-17T04:15:11.951Z,9.77
2017-10-17T04:18:20.273Z,9.47
2017-10-17T04:21:41.585Z,10.17
2017-10-17T04:24:50.954Z,10.70
2017-10-17T04:31:53.413Z,9.27
2017-10-17T04:34:55.919Z,10.63
2017-10-17T04:37:58.264Z,10.37
2017-10-17T04:40:59.884Z,9.80
2017-10-17T04:44:20.483Z,10.97
2017-10-17T04:47:22.178Z,11.73
2017-10-17T04:54:46.689Z,10.60
2017-10-17T04:57:48.297Z,10.03
2017-10-17T05:00:50.730Z,11.00
2017-10-17T05:04:28.744Z,9.17
2017-10-17T05:07:47.776Z,11.10
2017-10-17T05:11:12.874Z,10.17
2017-10-17T05:18:04.474Z,12.00
2017-10-17T05:21:06.271Z,10.93
2017-10-17T05:28:14.051Z,11.07
2017-10-17T05:31:23.141Z,10.53
2017-10-17T05:34:25.675Z,11.00
2017-10-17T05:37:28.307Z,10.90
2017-10-17T05:40:29.982Z,11.87
2017-10-17T05:47:09.842Z,11.77
2017-10-17T05:53:51.729Z,11.33
2017-10-17T05:56:54.027Z,10.20
2017-10-17T05:59:55.672Z,10.70
2017-10-17T06:02:57.327Z,10.23
2017-10-17T06:06:00.022Z,11.23
2017-10-17T06:09:01.759Z,11.30
2017-10-17T06:12:04.087Z,10.60
2017-10-17T06:15:05.695Z,11.30
2017-10-17T06:18:10.396Z,12.47
2017-10-17T06:21:12.104Z,11.00
2017-10-17T06:24:13.700Z,12.67
2017-10-17T06:27:15.260Z,11.77
2017-10-17T06:30:16.909Z,11.80
2017-10-17T06:33:18.537Z,13.30
2017-10-17T06:36:20.141Z,12.13
2017-10-17T06:39:22.520Z,11.83
2017-10-17T06:42:24.210Z,12.50
2017-10-17T06:45:25.752Z,12.53
2017-10-17T06:48:27.500Z,12.77
2017-10-17T06:51:29.869Z,12.60
2017-10-17T06:54:32.311Z,11.33
2017-10-17T06:57:34.007Z,12.90
2017-10-17T07:00:36.345Z,11.53
2017-10-17T07:03:37.982Z,10.87
2017-10-17T07:06:39.578Z,12.17
2017-10-17T07:09:41.270Z,11.10
2017-10-17T07:12:42.889Z,11.90
2017-10-17T07:15:45.565Z,11.47
2017-10-17T07:18:47.233Z,11.40
2017-10-17T07:21:48.811Z,11.37
2017-10-17T07:24:51.155Z,11.90
2017-10-17T07:27:52.639Z,12.77
2017-10-17T07:30:54.920Z,13.30
2017-10-17T07:33:57.255Z,11.90
2017-10-17T07:36:59.282Z,12.60
2017-10-17T07:40:00.795Z,11.97
2017-10-17T07:43:02.433Z,15.10
2017-10-17T07:46:03.924Z,13.60
2017-10-17T07:49:05.330Z,13.77
2017-10-17T07:52:06.788Z,13.87
2017-10-17T07:55:08.204Z,13.10
2017-10-17T07:58:09.696Z,14.00
2017-10-17T08:01:11.166Z,15.57
2017-10-17T08:04:12.677Z,14.13
2017-10-17T08:07:14.257Z,14.97
2017-10-17T08:10:15.724Z,15.30
2017-10-17T08:13:17.142Z,15.30
2017-10-17T08:16:18.565Z,13.23
2017-10-17T08:19:19.917Z,14.53
2017-10-17T08:22:21.376Z,13.97
2017-10-17T08:25:22.721Z,14.80
2017-10-17T08:28:24.810Z,15.10
2017-10-17T08:31:26.241Z,16.27
2017-10-17T08:34:27.633Z,16.10
2017-10-17T08:37:29.024Z,15.80
2017-10-17T08:40:31.272Z,16.00
2017-10-17T08:43:32.664Z,18.17
2017-10-17T08:46:34.041Z,17.20
2017-10-17T08:49:35.476Z,17.07
2017-10-17T08:52:36.870Z,16.97
2017-10-17T08:55:38.278Z,16.70
2017-10-17T08:58:39.675Z,16.87
2017-10-17T09:01:41.112Z,18.90
2017-10-17T09:04:42.460Z,21.43
2017-10-17T09:07:43.862Z,21.23
2017-10-17T09:10:46.130Z,23.23
2017-10-17T09:13:48.293Z,22.97
2017-10-17T09:16:50.413Z,23.23
2017-10-17T09:19:51.784Z,23.80
2017-10-17T09:22:53.180Z,22.60
2017-10-17T09:25:55.269Z,22.97
2017-10-17T09:28:56.709Z,21.63
2017-10-17T09:31:58.096Z,21.50
2017-10-17T09:34:59.576Z,23.07
2017-10-17T09:38:00.958Z,24.97
2017-10-17T09:41:03.148Z,23.33
2017-10-17T09:44:04.556Z,25.20
2017-10-17T09:47:05.958Z,27.87
2017-10-17T09:50:07.387Z,25.30
2017-10-17T09:53:08.802Z,28.60
2017-10-17T09:56:10.257Z,26.80
2017-10-17T09:59:11.669Z,37.10
2017-10-17T10:02:13.132Z,33.73
2017-10-17T10:05:14.552Z,33.70
2017-10-17T10:08:16.646Z,33.73
2017-10-17T10:11:18.049Z,32.87
2017-10-17T10:14:19.462Z,32.13
2017-10-17T10:17:20.908Z,31.83
2017-10-17T10:20:22.268Z,29.20
2017-10-17T10:23:23.652Z,28.87
2017-10-17T10:26:25.100Z,29.80
2017-10-17T10:29:26.441Z,30.20
2017-10-17T10:32:27.820Z,28.07
2017-10-17T10:35:29.206Z,28.60
2017-10-17T10:38:30.575Z,27.63
2017-10-17T10:41:31.978Z,28.90
2017-10-17T10:44:34.173Z,30.87
2017-10-17T10:47:36.316Z,29.17
2017-10-17T10:50:38.449Z,28.10
2017-10-17T10:53:39.846Z,28.63
2017-10-17T10:56:41.957Z,26.30
2017-10-17T10:59:43.387Z,30.23
2017-10-17T11:02:44.781Z,29.10
2017-10-17T11:05:46.176Z,30.07
2017-10-17T11:08:47.582Z,28.53
2017-10-17T11:11:48.978Z,30.07
2017-10-17T11:14:51.150Z,29.83
2017-10-17T11:17:53.278Z,28.33
2017-10-17T11:20:54.689Z,29.80
2017-10-17T11:23:56.040Z,29.67
2017-10-17T11:26:57.417Z,30.10
2017-10-17T11:29:58.895Z,29.70
2017-10-17T11:33:00.233Z,30.00
2017-10-17T11:36:01.641Z,34.37
2017-10-17T11:39:03.086Z,34.00
2017-10-17T11:42:23.177Z,32.03
2017-10-17T11:45:24.571Z,34.07
2017-10-17T11:48:26.028Z,35.73
2017-10-17T11:51:27.431Z,36.17
2017-10-17T11:54:28.831Z,33.20
2017-10-17T11:57:30.307Z,32.80
2017-10-17T12:00:31.715Z,34.47
2017-10-17T12:03:33.085Z,33.70
2017-10-17T12:06:34.537Z,33.80
2017-10-17T12:09:35.919Z,33.10
2017-10-17T12:12:38.097Z,34.83
2017-10-17T12:15:40.278Z,35.53
2017-10-17T12:18:42.488Z,33.17
2017-10-17T12:21:43.915Z,37.23
2017-10-17T12:24:45.358Z,38.50
2017-10-17T12:27:46.767Z,38.60
2017-10-17T12:30:48.244Z,36.87
2017-10-17T12:33:57.542Z,41.40
2017-10-17T12:36:58.968Z,36.63
2017-10-17T12:40:00.460Z,38.60
2017-10-17T12:43:01.854Z,41.40
2017-10-17T12:46:03.316Z,36.60
2017-10-17T12:49:04.673Z,37.60
2017-10-17T12:52:06.086Z,40.13
2017-10-17T12:55:08.296Z,39.80
2017-10-17T12:58:09.660Z,41.37
2017-10-17T13:01:11.085Z,41.97
2017-10-17T13:04:12.450Z,39.27
2017-10-17T13:07:13.907Z,38.50
2017-10-17T13:10:15.336Z,40.17
2017-10-17T13:13:16.685Z,39.47
2017-10-17T13:16:19.835Z,41.63
2017-10-17T13:19:21.297Z,41.30
2017-10-17T13:22:23.136Z,41.10
2017-10-17T13:25:24.485Z,40.50
2017-10-17T13:28:26.032Z,39.33
2017-10-17T13:31:27.448Z,40.90
2017-10-17T13:34:28.985Z,40.80
2017-10-17T13:37:31.177Z,39.60
2017-10-17T13:40:32.701Z,37.10
2017-10-17T13:43:34.844Z,37.87
2017-10-17T13:46:36.167Z,37.60
2017-10-17T13:49:37.709Z,37.00
2017-10-17T13:52:39.081Z,36.37
2017-10-17T13:55:40.440Z,34.20
2017-10-17T13:58:41.872Z,34.43
2017-10-17T14:01:43.227Z,34.03
2017-10-17T14:04:44.688Z,32.90
2017-10-17T14:07:46.104Z,32.50
2017-10-17T14:10:47.608Z,32.93
2017-10-17T14:13:49.378Z,32.07
2017-10-17T14:16:50.823Z,33.27
2017-10-17T14:19:52.291Z,29.33
2017-10-17T14:22:53.683Z,28.87
2017-10-17T14:25:55.809Z,32.17
2017-10-17T14:28:57.376Z,30.57
2017-10-17T14:31:58.757Z,31.70
2017-10-17T14:35:00.147Z,30.97
2017-10-17T14:38:01.553Z,32.63
2017-10-17T14:41:03.867Z,30.73
2017-10-17T14:44:05.283Z,31.47
2017-10-17T14:47:07.542Z,29.30
2017-10-17T14:50:09.725Z,30.23
2017-10-17T14:53:11.156Z,27.43
2017-10-17T14:56:12.653Z,29.50
2017-10-17T14:59:14.056Z,28.30
2017-10-17T15:02:15.618Z,30.30
2017-10-17T15:05:17.831Z,29.90
2017-10-17T15:08:19.247Z,28.83
2017-10-17T15:11:20.664Z,30.03
2017-10-17T15:14:22.015Z,27.70
2017-10-17T15:17:23.417Z,26.87
2017-10-17T15:20:25.538Z,27.10
2017-10-17T15:23:26.946Z,24.47
2017-10-17T15:26:29.068Z,25.90
2017-10-17T15:29:31.202Z,22.93
2017-10-17T15:32:32.727Z,25.00
2017-10-17T15:35:35.328Z,23.67
2017-10-17T15:38:37.149Z,23.67
2017-10-17T15:41:38.540Z,22.80
2017-10-17T15:44:40.722Z,25.07
2017-10-17T15:47:42.091Z,25.43
2017-10-17T15:50:44.146Z,23.33
2017-10-17T15:53:45.557Z,26.67
2017-10-17T15:56:47.727Z,26.10
2017-10-17T15:59:50.761Z,24.90
2017-10-17T16:02:52.422Z,23.57
2017-10-17T16:05:53.843Z,24.30
2017-10-17T16:08:55.244Z,24.57
2017-10-17T16:11:56.957Z,24.90
2017-10-17T16:14:59.124Z,25.63
2017-10-17T16:18:00.576Z,25.97
2017-10-17T16:21:02.139Z,25.90
2017-10-17T16:24:04.755Z,25.63
2017-10-17T16:27:07.297Z,25.63
2017-10-17T16:30:09.434Z,25.73
2017-10-17T16:33:11.935Z,26.73
2017-10-17T16:36:14.360Z,26.30
2017-10-17T16:39:16.015Z,27.27
2017-10-17T16:42:17.951Z,24.27
2017-10-17T16:45:19.763Z,25.97
2017-10-17T16:48:21.949Z,28.47
2017-10-17T16:51:23.853Z,26.40
2017-10-17T16:54:25.365Z,28.07
2017-10-17T16:57:27.569Z,28.83
2017-10-17T17:00:30.188Z,29.37
2017-10-17T17:03:33.280Z,30.67
2017-10-17T17:06:34.635Z,38.00
2017-10-17T17:09:36.497Z,36.30
2017-10-17T17:12:38.957Z,30.03
2017-10-17T17:15:41.583Z,28.80
2017-10-17T17:18:45.067Z,28.47
2017-10-17T17:21:47.661Z,28.80
2017-10-17T17:24:49.082Z,28.37
2017-10-17T17:27:50.476Z,29.60
2017-10-17T17:30:52.300Z,31.07
2017-10-17T17:33:54.386Z,35.10
2017-10-17T17:36:55.888Z,33.13
2017-10-17T17:39:57.498Z,29.77
2017-10-17T17:42:58.976Z,27.40
2017-10-17T17:46:00.739Z,28.87
2017-10-17T17:49:02.441Z,30.63
2017-10-17T17:52:04.012Z,29.33
2017-10-17T17:55:05.417Z,32.13
2017-10-17T17:58:06.863Z,31.73
2017-10-17T18:01:08.280Z,29.13
2017-10-17T18:04:09.749Z,30.67
2017-10-17T18:07:11.260Z,29.00
2017-10-17T18:10:13.408Z,28.40
2017-10-17T18:13:14.912Z,28.10
2017-10-17T18:16:17.706Z,30.53
2017-10-17T18:19:19.248Z,32.47
2017-10-17T18:22:20.841Z,32.60
2017-10-17T18:25:23.416Z,30.47
2017-10-17T18:28:24.895Z,28.67
2017-10-17T18:31:26.353Z,30.27
2017-10-17T18:34:27.795Z,34.20
2017-10-17T18:37:29.559Z,32.93
2017-10-17T18:40:31.047Z,31.37
2017-10-17T18:43:32.633Z,31.60
2017-10-17T18:46:34.016Z,30.23
2017-10-17T18:49:35.598Z,29.77
2017-10-17T18:52:37.938Z,29.27
2017-10-17T18:55:39.912Z,29.97
2017-10-17T18:58:41.326Z,30.57
2017-10-17T19:01:42.916Z,33.10
2017-10-17T19:04:46.414Z,31.00
2017-10-17T19:07:48.786Z,29.40
2017-10-17T19:10:50.271Z,31.70
2017-10-17T19:13:51.661Z,32.73
2017-10-17T19:16:53.209Z,30.50
2017-10-17T19:19:54.627Z,30.80
2017-10-17T19:22:56.083Z,29.43
2017-10-17T19:25:57.469Z,27.43
2017-10-17T19:28:58.947Z,29.40
2017-10-17T19:32:00.357Z,29.80
2017-10-17T19:35:01.767Z,29.90
2017-10-17T19:38:03.264Z,30.40
2017-10-17T19:41:04.711Z,31.40
2017-10-17T19:44:06.210Z,28.70
2017-10-17T19:47:07.657Z,28.60
2017-10-17T19:50:09.096Z,30.97
2017-10-17T19:53:10.496Z,30.20
2017-10-17T19:56:11.885Z,29.30
2017-10-17T19:59:14.021Z,28.00
2017-10-17T20:02:15.551Z,29.10
2017-10-17T20:05:17.126Z,32.03
2017-10-17T20:08:18.518Z,30.67
2017-10-17T20:11:21.641Z,36.93
2017-10-17T20:14:23.119Z,34.33
2017-10-17T20:17:24.736Z,33.50
2017-10-17T20:20:26.212Z,34.57
2017-10-17T20:23:27.829Z,33.33
2017-10-17T20:26:29.892Z,33.17
2017-10-17T20:29:31.393Z,35.50
2017-10-17T20:32:32.761Z,33.63
2017-10-17T20:35:35.686Z,35.33
2017-10-17T20:38:37.127Z,35.60
2017-10-17T20:41:38.484Z,35.53
2017-10-17T20:44:41.368Z,33.47
2017-10-17T20:47:42.766Z,30.63
2017-10-17T20:50:44.718Z,29.70
2017-10-17T20:53:46.066Z,29.40
2017-10-17T20:56:48.159Z,28.67
2017-10-17T20:59:49.595Z,29.70
2017-10-17T21:02:52.456Z,28.27
2017-10-17T21:05:54.990Z,28.73
2017-10-17T21:08:56.712Z,25.60
2017-10-17T21:11:58.875Z,26.43
2017-10-17T21:15:01.445Z,25.83
2017-10-17T21:18:04.247Z,28.37
2017-10-17T21:21:05.652Z,25.73
2017-10-17T21:24:07.361Z,24.10
2017-10-17T21:27:10.047Z,27.20
2017-10-17T21:30:12.081Z,27.73
2017-10-17T21:33:16.266Z,25.80
2017-10-17T21:36:18.692Z,24.97
2017-10-17T21:39:21.094Z,25.83
2017-10-17T21:42:25.327Z,24.30
2017-10-17T21:45:28.035Z,26.00
2017-10-17T21:48:30.895Z,26.33
2017-10-17T21:51:32.892Z,24.90
2017-10-17T21:54:34.495Z,25.77
2017-10-17T21:57:36.007Z,24.90
2017-10-17T22:00:55.811Z,24.70
2017-10-17T22:03:57.998Z,23.83
2017-10-17T22:06:59.871Z,21.90
2017-10-17T22:10:01.437Z,22.07
2017-10-17T22:13:02.894Z,24.33
2017-10-17T22:16:04.375Z,24.17
2017-10-17T22:19:05.862Z,24.07
2017-10-17T22:22:07.832Z,22.93
2017-10-17T22:25:09.999Z,22.10
2017-10-17T22:28:11.439Z,22.70
2017-10-17T22:31:13.641Z,21.83
2017-10-17T22:34:15.153Z,20.93
2017-10-17T22:40:25.539Z,22.10
2017-10-17T22:43:27.008Z,23.00
2017-10-17T22:46:29.247Z,21.77
2017-10-17T22:49:30.771Z,20.20
2017-10-17T22:52:32.240Z,20.63
2017-10-17T22:55:33.743Z,20.00
2017-10-17T22:58:35.177Z,22.30
2017-10-17T23:01:36.638Z,20.03
2017-10-17T23:04:38.809Z,17.63
2017-10-17T23:07:40.972Z,19.20
2017-10-17T23:10:43.153Z,20.37
2017-10-17T23:13:45.339Z,19.73
2017-10-17T23:17:05.231Z,21.23
2017-10-17T23:23:53.283Z,20.20
2017-10-17T23:26:54.763Z,17.80
2017-10-17T23:29:56.505Z,18.20
2017-10-17T23:32:57.980Z,16.73
2017-10-17T23:35:59.403Z,19.93
2017-10-17T23:39:00.843Z,18.10
2017-10-17T23:42:02.355Z,17.30
2017-10-17T23:45:03.831Z,17.50
2017-10-17T23:48:06.054Z,17.80
2017-10-17T23:51:07.468Z,18.47
2017-10-17T23:54:09.668Z,18.37
2017-10-17T23:57:11.119Z,19.30
